sensor_id;sensor_type;location;lat;lon;timestamp;P1;durP1;ratioP1;P2;durP2;ratioP2
22812;SDS011;11573;51.334;3.244;2023-03-31T00:00:50;20.13;;;3.75;;
22812;SDS011;11573;51.334;3.244;2023-03-31T00:03:18;23.13;;;4.90;;
22812;SDS011;11573;51.334;3.244;2023-03-31T00:05:56;22.35;;;4.30;;
22812;SDS011;11573;51.334;3.244;2023-03-31T00:08:26;22.23;;;4.05;;
22812;SDS011;11573;51.334;3.244;2023-03-31T00:10:59;20.30;;;3.80;;
22812;SDS011;11573;51.334;3.244;2023-03-31T00:13:28;22.75;;;4.88;;
22812;SDS011;11573;51.334;3.244;2023-03-31T00:16:03;20.85;;;3.63;;
22812;SDS011;11573;51.334;3.244;2023-03-31T00:18:32;24.05;;;5.00;;
22812;SDS011;11573;51.334;3.244;2023-03-31T00:21:14;19.25;;;3.50;;
22812;SDS011;11573;51.334;3.244;2023-03-31T00:23:56;20.63;;;3.70;;
22812;SDS011;11573;51.334;3.244;2023-03-31T00:26:25;17.55;;;3.47;;
22812;SDS011;11573;51.334;3.244;2023-03-31T00:28:53;16.13;;;3.88;;
22812;SDS011;11573;51.334;3.244;2023-03-31T00:31:21;18.27;;;3.28;;
22812;SDS011;11573;51.334;3.244;2023-03-31T00:33:48;15.45;;;3.50;;
22812;SDS011;11573;51.334;3.244;2023-03-31T00:36:16;14.98;;;2.72;;
22812;SDS011;11573;51.334;3.244;2023-03-31T00:38:47;12.13;;;3.30;;
22812;SDS011;11573;51.334;3.244;2023-03-31T00:41:14;11.25;;;2.67;;
22812;SDS011;11573;51.334;3.244;2023-03-31T00:43:59;16.77;;;2.63;;
22812;SDS011;11573;51.334;3.244;2023-03-31T00:49:14;11.05;;;2.65;;
22812;SDS011;11573;51.334;3.244;2023-03-31T00:51:49;16.67;;;3.40;;
22812;SDS011;11573;51.334;3.244;2023-03-31T00:54:19;12.82;;;2.80;;
22812;SDS011;11573;51.334;3.244;2023-03-31T00:56:50;22.65;;;3.55;;
22812;SDS011;11573;51.334;3.244;2023-03-31T00:59:21;17.63;;;2.78;;
22812;SDS011;11573;51.334;3.244;2023-03-31T01:01:53;14.60;;;2.83;;
22812;SDS011;11573;51.334;3.244;2023-03-31T01:04:24;15.10;;;3.00;;
22812;SDS011;11573;51.334;3.244;2023-03-31T01:06:57;14.73;;;3.08;;
22812;SDS011;11573;51.334;3.244;2023-03-31T01:09:35;12.73;;;3.22;;
22812;SDS011;11573;51.334;3.244;2023-03-31T01:12:05;14.35;;;3.33;;
22812;SDS011;11573;51.334;3.244;2023-03-31T01:14:34;13.43;;;2.95;;
22812;SDS011;11573;51.334;3.244;2023-03-31T01:17:01;15.38;;;3.25;;
22812;SDS011;11573;51.334;3.244;2023-03-31T01:45:27;14.60;;;3.00;;
22812;SDS011;11573;51.334;3.244;2023-03-31T01:48:16;18.48;;;3.95;;
22812;SDS011;11573;51.334;3.244;2023-03-31T01:50:54;15.73;;;3.63;;
22812;SDS011;11573;51.334;3.244;2023-03-31T01:56:12;18.67;;;4.38;;
22812;SDS011;11573;51.334;3.244;2023-03-31T02:01:28;20.02;;;3.33;;
22812;SDS011;11573;51.334;3.244;2023-03-31T02:04:03;16.73;;;3.85;;
22812;SDS011;11573;51.334;3.244;2023-03-31T02:06:36;12.45;;;3.63;;
22812;SDS011;11573;51.334;3.244;2023-03-31T02:09:08;18.30;;;3.45;;
22812;SDS011;11573;51.334;3.244;2023-03-31T02:11:39;14.80;;;3.50;;
22812;SDS011;11573;51.334;3.244;2023-03-31T02:14:10;15.50;;;3.50;;
22812;SDS011;11573;51.334;3.244;2023-03-31T02:16:44;20.15;;;4.13;;
22812;SDS011;11573;51.334;3.244;2023-03-31T02:19:14;22.17;;;4.07;;
22812;SDS011;11573;51.334;3.244;2023-03-31T02:21:45;22.55;;;5.35;;
22812;SDS011;11573;51.334;3.244;2023-03-31T02:24:17;17.95;;;3.92;;
22812;SDS011;11573;51.334;3.244;2023-03-31T02:26:56;19.48;;;5.10;;
22812;SDS011;11573;51.334;3.244;2023-03-31T02:29:31;22.30;;;5.10;;
22812;SDS011;11573;51.334;3.244;2023-03-31T02:32:03;19.10;;;4.22;;
22812;SDS011;11573;51.334;3.244;2023-03-31T02:34:40;23.50;;;4.32;;
22812;SDS011;11573;51.334;3.244;2023-03-31T02:37:07;17.30;;;4.97;;
22812;SDS011;11573;51.334;3.244;2023-03-31T02:39:35;13.35;;;4.15;;
22812;SDS011;11573;51.334;3.244;2023-03-31T02:42:04;14.70;;;4.60;;
22812;SDS011;11573;51.334;3.244;2023-03-31T02:44:34;17.55;;;4.22;;
22812;SDS011;11573;51.334;3.244;2023-03-31T02:47:03;16.55;;;4.35;;
22812;SDS011;11573;51.334;3.244;2023-03-31T02:49:34;11.60;;;3.95;;
22812;SDS011;11573;51.334;3.244;2023-03-31T02:52:25;22.77;;;4.53;;
22812;SDS011;11573;51.334;3.244;2023-03-31T03:05:44;11.43;;;3.55;;
22812;SDS011;11573;51.334;3.244;2023-03-31T03:11:32;16.25;;;3.10;;
22812;SDS011;11573;51.334;3.244;2023-03-31T03:14:47;17.33;;;3.83;;
22812;SDS011;11573;51.334;3.244;2023-03-31T03:17:22;12.32;;;2.72;;
22812;SDS011;11573;51.334;3.244;2023-03-31T03:19:51;12.02;;;3.55;;
22812;SDS011;11573;51.334;3.244;2023-03-31T03:22:20;8.40;;;2.45;;
22812;SDS011;11573;51.334;3.244;2023-03-31T03:24:47;13.40;;;3.28;;
22812;SDS011;11573;51.334;3.244;2023-03-31T03:27:14;13.23;;;3.30;;
22812;SDS011;11573;51.334;3.244;2023-03-31T03:29:41;17.55;;;3.30;;
22812;SDS011;11573;51.334;3.244;2023-03-31T03:32:09;12.88;;;3.00;;
22812;SDS011;11573;51.334;3.244;2023-03-31T03:34:36;11.73;;;2.80;;
22812;SDS011;11573;51.334;3.244;2023-03-31T03:37:03;9.57;;;2.60;;
22812;SDS011;11573;51.334;3.244;2023-03-31T03:39:31;10.20;;;2.53;;
22812;SDS011;11573;51.334;3.244;2023-03-31T03:41:58;10.95;;;2.13;;
22812;SDS011;11573;51.334;3.244;2023-03-31T03:44:25;13.32;;;2.70;;
22812;SDS011;11573;51.334;3.244;2023-03-31T03:46:52;9.77;;;2.53;;
22812;SDS011;11573;51.334;3.244;2023-03-31T03:49:19;7.20;;;2.15;;
22812;SDS011;11573;51.334;3.244;2023-03-31T03:51:46;8.90;;;2.45;;
22812;SDS011;11573;51.334;3.244;2023-03-31T03:54:13;9.75;;;2.70;;
22812;SDS011;11573;51.334;3.244;2023-03-31T03:56:41;9.35;;;2.10;;
22812;SDS011;11573;51.334;3.244;2023-03-31T03:59:09;9.20;;;2.17;;
22812;SDS011;11573;51.334;3.244;2023-03-31T04:01:36;8.65;;;2.20;;
22812;SDS011;11573;51.334;3.244;2023-03-31T04:04:04;7.18;;;2.13;;
22812;SDS011;11573;51.334;3.244;2023-03-31T04:06:31;5.85;;;1.90;;
22812;SDS011;11573;51.334;3.244;2023-03-31T04:08:58;6.70;;;2.08;;
22812;SDS011;11573;51.334;3.244;2023-03-31T04:11:25;8.80;;;2.40;;
22812;SDS011;11573;51.334;3.244;2023-03-31T04:13:53;7.35;;;2.20;;
22812;SDS011;11573;51.334;3.244;2023-03-31T04:16:20;6.57;;;2.17;;
22812;SDS011;11573;51.334;3.244;2023-03-31T04:18:48;8.05;;;2.00;;
22812;SDS011;11573;51.334;3.244;2023-03-31T04:21:15;4.40;;;1.50;;
22812;SDS011;11573;51.334;3.244;2023-03-31T04:23:49;3.25;;;1.42;;
22812;SDS011;11573;51.334;3.244;2023-03-31T04:26:33;8.10;;;2.10;;
22812;SDS011;11573;51.334;3.244;2023-03-31T04:29:10;8.07;;;2.30;;
22812;SDS011;11573;51.334;3.244;2023-03-31T04:31:39;3.95;;;1.52;;
22812;SDS011;11573;51.334;3.244;2023-03-31T04:34:10;10.35;;;2.33;;
22812;SDS011;11573;51.334;3.244;2023-03-31T04:36:39;10.75;;;2.40;;
22812;SDS011;11573;51.334;3.244;2023-03-31T04:39:08;6.85;;;2.10;;
22812;SDS011;11573;51.334;3.244;2023-03-31T04:41:38;5.50;;;1.90;;
22812;SDS011;11573;51.334;3.244;2023-03-31T04:44:05;9.52;;;2.10;;
22812;SDS011;11573;51.334;3.244;2023-03-31T04:46:32;8.18;;;1.90;;
22812;SDS011;11573;51.334;3.244;2023-03-31T04:49:00;10.63;;;2.58;;
22812;SDS011;11573;51.334;3.244;2023-03-31T04:51:28;9.82;;;2.42;;
22812;SDS011;11573;51.334;3.244;2023-03-31T04:53:55;7.45;;;2.20;;
22812;SDS011;11573;51.334;3.244;2023-03-31T04:56:22;6.72;;;1.50;;
22812;SDS011;11573;51.334;3.244;2023-03-31T04:58:48;4.07;;;1.75;;
22812;SDS011;11573;51.334;3.244;2023-03-31T05:01:16;6.07;;;1.85;;
22812;SDS011;11573;51.334;3.244;2023-03-31T05:03:46;8.95;;;1.90;;
22812;SDS011;11573;51.334;3.244;2023-03-31T05:06:14;4.20;;;1.85;;
22812;SDS011;11573;51.334;3.244;2023-03-31T05:08:41;7.18;;;2.38;;
22812;SDS011;11573;51.334;3.244;2023-03-31T05:11:09;6.28;;;2.10;;
22812;SDS011;11573;51.334;3.244;2023-03-31T05:13:36;5.57;;;1.92;;
22812;SDS011;11573;51.334;3.244;2023-03-31T05:16:07;13.52;;;2.55;;
22812;SDS011;11573;51.334;3.244;2023-03-31T05:18:36;11.50;;;2.88;;
22812;SDS011;11573;51.334;3.244;2023-03-31T05:21:07;10.82;;;3.17;;
22812;SDS011;11573;51.334;3.244;2023-03-31T05:23:43;14.00;;;2.92;;
22812;SDS011;11573;51.334;3.244;2023-03-31T05:26:10;9.77;;;2.95;;
22812;SDS011;11573;51.334;3.244;2023-03-31T05:28:37;11.18;;;3.80;;
22812;SDS011;11573;51.334;3.244;2023-03-31T05:31:05;11.48;;;3.67;;
22812;SDS011;11573;51.334;3.244;2023-03-31T05:33:33;15.98;;;4.22;;
22812;SDS011;11573;51.334;3.244;2023-03-31T05:36:06;13.98;;;4.18;;
22812;SDS011;11573;51.334;3.244;2023-03-31T05:38:35;11.23;;;3.65;;
22812;SDS011;11573;51.334;3.244;2023-03-31T05:41:02;16.42;;;4.28;;
22812;SDS011;11573;51.334;3.244;2023-03-31T05:43:29;15.10;;;4.65;;
22812;SDS011;11573;51.334;3.244;2023-03-31T05:45:56;11.30;;;4.32;;
22812;SDS011;11573;51.334;3.244;2023-03-31T05:48:23;14.18;;;3.88;;
22812;SDS011;11573;51.334;3.244;2023-03-31T05:50:50;14.25;;;3.90;;
22812;SDS011;11573;51.334;3.244;2023-03-31T05:53:17;16.05;;;4.13;;
22812;SDS011;11573;51.334;3.244;2023-03-31T05:55:44;17.65;;;4.28;;
22812;SDS011;11573;51.334;3.244;2023-03-31T05:58:10;15.52;;;4.03;;
22812;SDS011;11573;51.334;3.244;2023-03-31T06:00:37;17.35;;;3.63;;
22812;SDS011;11573;51.334;3.244;2023-03-31T06:03:04;13.63;;;3.30;;
22812;SDS011;11573;51.334;3.244;2023-03-31T06:05:33;19.70;;;3.65;;
22812;SDS011;11573;51.334;3.244;2023-03-31T06:08:01;16.15;;;3.67;;
22812;SDS011;11573;51.334;3.244;2023-03-31T06:10:28;16.60;;;3.22;;
22812;SDS011;11573;51.334;3.244;2023-03-31T06:12:55;18.17;;;3.30;;
22812;SDS011;11573;51.334;3.244;2023-03-31T06:15:22;11.73;;;2.92;;
22812;SDS011;11573;51.334;3.244;2023-03-31T06:17:49;11.50;;;2.90;;
22812;SDS011;11573;51.334;3.244;2023-03-31T06:20:16;19.60;;;4.72;;
22812;SDS011;11573;51.334;3.244;2023-03-31T06:22:53;16.85;;;4.07;;
22812;SDS011;11573;51.334;3.244;2023-03-31T06:25:20;16.52;;;4.78;;
22812;SDS011;11573;51.334;3.244;2023-03-31T06:27:47;19.38;;;4.47;;
22812;SDS011;11573;51.334;3.244;2023-03-31T06:30:14;21.25;;;5.22;;
22812;SDS011;11573;51.334;3.244;2023-03-31T06:32:41;16.88;;;4.03;;
22812;SDS011;11573;51.334;3.244;2023-03-31T06:35:08;31.52;;;4.47;;
22812;SDS011;11573;51.334;3.244;2023-03-31T06:37:36;26.25;;;4.75;;
22812;SDS011;11573;51.334;3.244;2023-03-31T06:40:02;20.25;;;4.80;;
22812;SDS011;11573;51.334;3.244;2023-03-31T06:42:30;19.80;;;4.80;;
22812;SDS011;11573;51.334;3.244;2023-03-31T06:44:57;24.80;;;4.68;;
22812;SDS011;11573;51.334;3.244;2023-03-31T06:47:23;24.27;;;4.57;;
22812;SDS011;11573;51.334;3.244;2023-03-31T06:49:50;26.05;;;5.10;;
22812;SDS011;11573;51.334;3.244;2023-03-31T06:52:17;26.98;;;4.75;;
22812;SDS011;11573;51.334;3.244;2023-03-31T06:54:44;29.55;;;4.80;;
22812;SDS011;11573;51.334;3.244;2023-03-31T06:57:11;21.65;;;4.97;;
22812;SDS011;11573;51.334;3.244;2023-03-31T06:59:38;30.35;;;5.70;;
22812;SDS011;11573;51.334;3.244;2023-03-31T07:02:05;22.63;;;4.88;;
22812;SDS011;11573;51.334;3.244;2023-03-31T07:04:32;27.70;;;5.07;;
22812;SDS011;11573;51.334;3.244;2023-03-31T07:06:59;24.80;;;5.70;;
22812;SDS011;11573;51.334;3.244;2023-03-31T07:09:27;26.08;;;5.07;;
22812;SDS011;11573;51.334;3.244;2023-03-31T07:11:54;28.20;;;5.63;;
22812;SDS011;11573;51.334;3.244;2023-03-31T07:14:22;27.10;;;5.88;;
22812;SDS011;11573;51.334;3.244;2023-03-31T07:16:49;27.58;;;5.40;;
22812;SDS011;11573;51.334;3.244;2023-03-31T07:19:16;30.88;;;6.05;;
22812;SDS011;11573;51.334;3.244;2023-03-31T07:21:43;28.20;;;5.00;;
22812;SDS011;11573;51.334;3.244;2023-03-31T07:24:10;31.25;;;6.28;;
22812;SDS011;11573;51.334;3.244;2023-03-31T07:26:37;30.77;;;6.38;;
22812;SDS011;11573;51.334;3.244;2023-03-31T07:29:04;28.95;;;5.47;;
22812;SDS011;11573;51.334;3.244;2023-03-31T07:31:31;36.85;;;6.03;;
22812;SDS011;11573;51.334;3.244;2023-03-31T07:34:00;27.58;;;5.15;;
22812;SDS011;11573;51.334;3.244;2023-03-31T07:36:30;28.17;;;5.43;;
22812;SDS011;11573;51.334;3.244;2023-03-31T07:38:57;22.98;;;5.07;;
22812;SDS011;11573;51.334;3.244;2023-03-31T07:41:24;30.80;;;6.97;;
22812;SDS011;11573;51.334;3.244;2023-03-31T07:43:51;27.13;;;5.28;;
22812;SDS011;11573;51.334;3.244;2023-03-31T07:46:22;26.13;;;5.65;;
22812;SDS011;11573;51.334;3.244;2023-03-31T07:48:52;28.92;;;5.38;;
22812;SDS011;11573;51.334;3.244;2023-03-31T07:51:20;24.17;;;5.03;;
22812;SDS011;11573;51.334;3.244;2023-03-31T07:53:49;23.77;;;4.55;;
22812;SDS011;11573;51.334;3.244;2023-03-31T07:56:19;24.42;;;4.97;;
22812;SDS011;11573;51.334;3.244;2023-03-31T07:58:47;26.27;;;5.00;;
22812;SDS011;11573;51.334;3.244;2023-03-31T08:01:15;30.00;;;7.03;;
22812;SDS011;11573;51.334;3.244;2023-03-31T08:03:43;26.17;;;5.40;;
22812;SDS011;11573;51.334;3.244;2023-03-31T08:06:16;21.73;;;4.60;;
22812;SDS011;11573;51.334;3.244;2023-03-31T08:08:45;30.35;;;5.90;;
22812;SDS011;11573;51.334;3.244;2023-03-31T08:11:12;27.13;;;5.28;;
22812;SDS011;11573;51.334;3.244;2023-03-31T08:13:39;32.33;;;5.70;;
22812;SDS011;11573;51.334;3.244;2023-03-31T08:16:06;28.58;;;5.82;;
22812;SDS011;11573;51.334;3.244;2023-03-31T08:18:33;32.33;;;6.47;;
22812;SDS011;11573;51.334;3.244;2023-03-31T08:21:00;27.27;;;6.22;;
22812;SDS011;11573;51.334;3.244;2023-03-31T08:23:27;32.42;;;6.60;;
22812;SDS011;11573;51.334;3.244;2023-03-31T08:25:54;31.48;;;5.63;;
22812;SDS011;11573;51.334;3.244;2023-03-31T08:28:35;28.45;;;5.55;;
22812;SDS011;11573;51.334;3.244;2023-03-31T08:31:06;30.90;;;5.65;;
22812;SDS011;11573;51.334;3.244;2023-03-31T08:33:34;26.73;;;5.57;;
22812;SDS011;11573;51.334;3.244;2023-03-31T08:36:05;25.13;;;5.32;;
22812;SDS011;11573;51.334;3.244;2023-03-31T08:38:35;25.33;;;5.22;;
22812;SDS011;11573;51.334;3.244;2023-03-31T08:41:11;18.95;;;4.45;;
22812;SDS011;11573;51.334;3.244;2023-03-31T08:44:02;24.50;;;5.90;;
22812;SDS011;11573;51.334;3.244;2023-03-31T08:46:35;25.35;;;5.00;;
22812;SDS011;11573;51.334;3.244;2023-03-31T08:49:03;16.60;;;3.78;;
22812;SDS011;11573;51.334;3.244;2023-03-31T08:51:42;27.40;;;5.68;;
22812;SDS011;11573;51.334;3.244;2023-03-31T08:57:08;20.80;;;4.13;;
22812;SDS011;11573;51.334;3.244;2023-03-31T08:59:42;20.42;;;3.53;;
22812;SDS011;11573;51.334;3.244;2023-03-31T09:02:20;18.05;;;3.75;;
22812;SDS011;11573;51.334;3.244;2023-03-31T09:07:49;18.45;;;3.90;;
22812;SDS011;11573;51.334;3.244;2023-03-31T09:15:44;12.57;;;2.80;;
22812;SDS011;11573;51.334;3.244;2023-03-31T09:20:58;14.40;;;3.05;;
22812;SDS011;11573;51.334;3.244;2023-03-31T09:26:40;15.85;;;3.65;;
22812;SDS011;11573;51.334;3.244;2023-03-31T09:29:15;15.20;;;3.15;;
22812;SDS011;11573;51.334;3.244;2023-03-31T09:32:01;17.00;;;3.28;;
22812;SDS011;11573;51.334;3.244;2023-03-31T09:35:34;14.60;;;3.45;;
22812;SDS011;11573;51.334;3.244;2023-03-31T09:37:51;19.33;;;3.42;;
22812;SDS011;11573;51.334;3.244;2023-03-31T09:40:20;14.35;;;2.88;;
22812;SDS011;11573;51.334;3.244;2023-03-31T09:42:57;10.90;;;3.05;;
22812;SDS011;11573;51.334;3.244;2023-03-31T09:45:26;13.20;;;3.35;;
22812;SDS011;11573;51.334;3.244;2023-03-31T09:47:56;13.70;;;3.45;;
22812;SDS011;11573;51.334;3.244;2023-03-31T09:50:27;11.73;;;3.22;;
22812;SDS011;11573;51.334;3.244;2023-03-31T09:52:59;17.15;;;3.60;;
22812;SDS011;11573;51.334;3.244;2023-03-31T09:55:40;14.30;;;2.88;;
22812;SDS011;11573;51.334;3.244;2023-03-31T09:58:12;13.48;;;3.10;;
22812;SDS011;11573;51.334;3.244;2023-03-31T10:00:41;12.02;;;2.95;;
22812;SDS011;11573;51.334;3.244;2023-03-31T10:03:22;9.95;;;2.53;;
22812;SDS011;11573;51.334;3.244;2023-03-31T10:05:51;11.32;;;2.40;;
22812;SDS011;11573;51.334;3.244;2023-03-31T10:08:22;7.90;;;2.58;;
22812;SDS011;11573;51.334;3.244;2023-03-31T10:11:11;14.00;;;3.25;;
22812;SDS011;11573;51.334;3.244;2023-03-31T10:13:49;8.23;;;2.03;;
22812;SDS011;11573;51.334;3.244;2023-03-31T10:16:22;9.07;;;2.22;;
22812;SDS011;11573;51.334;3.244;2023-03-31T10:19:20;11.40;;;1.85;;
22812;SDS011;11573;51.334;3.244;2023-03-31T10:24:22;10.45;;;2.47;;
22812;SDS011;11573;51.334;3.244;2023-03-31T10:26:53;7.93;;;1.98;;
22812;SDS011;11573;51.334;3.244;2023-03-31T10:29:32;6.75;;;2.30;;
22812;SDS011;11573;51.334;3.244;2023-03-31T10:32:42;7.65;;;1.80;;
22812;SDS011;11573;51.334;3.244;2023-03-31T10:34:58;10.45;;;1.83;;
22812;SDS011;11573;51.334;3.244;2023-03-31T10:37:34;5.28;;;1.88;;
22812;SDS011;11573;51.334;3.244;2023-03-31T10:40:15;9.32;;;1.83;;
22812;SDS011;11573;51.334;3.244;2023-03-31T10:42:49;5.95;;;1.83;;
22812;SDS011;11573;51.334;3.244;2023-03-31T10:45:46;11.48;;;2.53;;
22812;SDS011;11573;51.334;3.244;2023-03-31T10:50:50;8.18;;;2.15;;
22812;SDS011;11573;51.334;3.244;2023-03-31T10:53:17;13.25;;;2.83;;
22812;SDS011;11573;51.334;3.244;2023-03-31T10:58:36;9.65;;;2.70;;
22812;SDS011;11573;51.334;3.244;2023-03-31T11:04:03;12.30;;;3.20;;
22812;SDS011;11573;51.334;3.244;2023-03-31T11:06:56;9.63;;;2.88;;
22812;SDS011;11573;51.334;3.244;2023-03-31T11:12:30;12.35;;;2.70;;
22812;SDS011;11573;51.334;3.244;2023-03-31T11:15:04;13.82;;;3.00;;
22812;SDS011;11573;51.334;3.244;2023-03-31T11:23:19;7.65;;;2.10;;
22812;SDS011;11573;51.334;3.244;2023-03-31T11:26:00;9.95;;;2.42;;
22812;SDS011;11573;51.334;3.244;2023-03-31T11:28:41;10.77;;;2.30;;
22812;SDS011;11573;51.334;3.244;2023-03-31T11:31:30;11.15;;;2.33;;
22812;SDS011;11573;51.334;3.244;2023-03-31T11:40:06;11.07;;;2.25;;
22812;SDS011;11573;51.334;3.244;2023-03-31T11:42:49;9.32;;;2.30;;
22812;SDS011;11573;51.334;3.244;2023-03-31T11:45:36;12.48;;;2.85;;
22812;SDS011;11573;51.334;3.244;2023-03-31T11:48:17;11.60;;;2.50;;
22812;SDS011;11573;51.334;3.244;2023-03-31T11:50:55;10.57;;;2.53;;
22812;SDS011;11573;51.334;3.244;2023-03-31T11:53:26;12.80;;;2.45;;
22812;SDS011;11573;51.334;3.244;2023-03-31T11:55:57;12.48;;;2.33;;
22812;SDS011;11573;51.334;3.244;2023-03-31T11:58:30;12.77;;;3.10;;
22812;SDS011;11573;51.334;3.244;2023-03-31T12:01:02;7.72;;;2.42;;
22812;SDS011;11573;51.334;3.244;2023-03-31T12:03:43;13.55;;;3.47;;
22812;SDS011;11573;51.334;3.244;2023-03-31T12:06:18;10.40;;;2.10;;
22812;SDS011;11573;51.334;3.244;2023-03-31T12:08:50;12.65;;;2.42;;
22812;SDS011;11573;51.334;3.244;2023-03-31T12:11:23;9.95;;;2.13;;
22812;SDS011;11573;51.334;3.244;2023-03-31T12:19:51;13.02;;;2.60;;
22812;SDS011;11573;51.334;3.244;2023-03-31T12:25:04;16.10;;;2.90;;
22812;SDS011;11573;51.334;3.244;2023-03-31T12:27:41;14.10;;;3.03;;
22812;SDS011;11573;51.334;3.244;2023-03-31T12:32:57;14.98;;;3.10;;
22812;SDS011;11573;51.334;3.244;2023-03-31T12:35:28;18.25;;;3.42;;
22812;SDS011;11573;51.334;3.244;2023-03-31T12:43:50;14.07;;;3.00;;
22812;SDS011;11573;51.334;3.244;2023-03-31T12:52:17;15.70;;;3.15;;
22812;SDS011;11573;51.334;3.244;2023-03-31T12:55:01;12.68;;;3.10;;
22812;SDS011;11573;51.334;3.244;2023-03-31T12:57:47;13.50;;;3.15;;
22812;SDS011;11573;51.334;3.244;2023-03-31T13:00:22;12.52;;;2.88;;
22812;SDS011;11573;51.334;3.244;2023-03-31T13:08:57;15.52;;;2.53;;
22812;SDS011;11573;51.334;3.244;2023-03-31T13:14:10;16.83;;;3.05;;
22812;SDS011;11573;51.334;3.244;2023-03-31T13:16:38;19.77;;;3.58;;
22812;SDS011;11573;51.334;3.244;2023-03-31T13:19:06;17.50;;;3.20;;
22812;SDS011;11573;51.334;3.244;2023-03-31T13:21:54;16.05;;;2.85;;
22812;SDS011;11573;51.334;3.244;2023-03-31T13:24:24;14.98;;;3.45;;
22812;SDS011;11573;51.334;3.244;2023-03-31T13:26:52;19.20;;;3.67;;
22812;SDS011;11573;51.334;3.244;2023-03-31T13:29:23;16.90;;;2.83;;
22812;SDS011;11573;51.334;3.244;2023-03-31T13:32:22;16.52;;;3.17;;
22812;SDS011;11573;51.334;3.244;2023-03-31T13:34:58;19.75;;;3.25;;
22812;SDS011;11573;51.334;3.244;2023-03-31T13:43:32;18.38;;;3.65;;
22812;SDS011;11573;51.334;3.244;2023-03-31T13:51:57;16.70;;;4.28;;
22812;SDS011;11573;51.334;3.244;2023-03-31T14:03:08;22.08;;;3.42;;
22812;SDS011;11573;51.334;3.244;2023-03-31T14:08:59;16.80;;;3.47;;
22812;SDS011;11573;51.334;3.244;2023-03-31T14:11:34;18.45;;;3.88;;
22812;SDS011;11573;51.334;3.244;2023-03-31T14:25:01;22.10;;;4.25;;
22812;SDS011;11573;51.334;3.244;2023-03-31T14:31:10;18.17;;;3.80;;
22812;SDS011;11573;51.334;3.244;2023-03-31T14:37:05;20.35;;;4.15;;
22812;SDS011;11573;51.334;3.244;2023-03-31T14:39:44;21.50;;;3.97;;
22812;SDS011;11573;51.334;3.244;2023-03-31T14:42:17;21.80;;;4.18;;
22812;SDS011;11573;51.334;3.244;2023-03-31T14:44:46;22.67;;;3.78;;
22812;SDS011;11573;51.334;3.244;2023-03-31T14:47:14;18.90;;;3.83;;
22812;SDS011;11573;51.334;3.244;2023-03-31T14:49:46;22.63;;;4.32;;
22812;SDS011;11573;51.334;3.244;2023-03-31T14:52:14;30.35;;;4.20;;
22812;SDS011;11573;51.334;3.244;2023-03-31T14:54:44;22.58;;;4.88;;
22812;SDS011;11573;51.334;3.244;2023-03-31T14:57:24;30.08;;;4.55;;
22812;SDS011;11573;51.334;3.244;2023-03-31T14:59:57;22.40;;;4.75;;
22812;SDS011;11573;51.334;3.244;2023-03-31T15:02:31;30.60;;;4.18;;
22812;SDS011;11573;51.334;3.244;2023-03-31T15:05:03;29.23;;;5.05;;
22812;SDS011;11573;51.334;3.244;2023-03-31T15:07:33;35.33;;;6.20;;
22812;SDS011;11573;51.334;3.244;2023-03-31T15:10:01;37.38;;;6.07;;
22812;SDS011;11573;51.334;3.244;2023-03-31T15:12:30;29.58;;;5.57;;
22812;SDS011;11573;51.334;3.244;2023-03-31T15:14:58;37.05;;;6.93;;
22812;SDS011;11573;51.334;3.244;2023-03-31T15:17:31;39.65;;;6.85;;
22812;SDS011;11573;51.334;3.244;2023-03-31T15:20:19;35.63;;;5.90;;
22812;SDS011;11573;51.334;3.244;2023-03-31T15:22:50;48.03;;;9.30;;
22812;SDS011;11573;51.334;3.244;2023-03-31T15:25:17;34.45;;;6.10;;
22812;SDS011;11573;51.334;3.244;2023-03-31T15:27:52;41.80;;;6.57;;
22812;SDS011;11573;51.334;3.244;2023-03-31T15:30:22;36.30;;;6.78;;
22812;SDS011;11573;51.334;3.244;2023-03-31T15:32:51;27.35;;;6.63;;
22812;SDS011;11573;51.334;3.244;2023-03-31T15:35:30;35.60;;;7.53;;
22812;SDS011;11573;51.334;3.244;2023-03-31T15:37:59;37.95;;;6.85;;
22812;SDS011;11573;51.334;3.244;2023-03-31T15:40:29;31.08;;;6.82;;
22812;SDS011;11573;51.334;3.244;2023-03-31T15:43:13;36.22;;;6.53;;
22812;SDS011;11573;51.334;3.244;2023-03-31T15:49:04;30.75;;;5.88;;
22812;SDS011;11573;51.334;3.244;2023-03-31T15:51:38;30.55;;;5.68;;
22812;SDS011;11573;51.334;3.244;2023-03-31T15:54:25;33.42;;;6.63;;
22812;SDS011;11573;51.334;3.244;2023-03-31T15:56:59;26.63;;;5.63;;
22812;SDS011;11573;51.334;3.244;2023-03-31T15:59:29;39.67;;;8.00;;
22812;SDS011;11573;51.334;3.244;2023-03-31T16:02:18;35.35;;;6.25;;
22812;SDS011;11573;51.334;3.244;2023-03-31T16:04:48;29.52;;;5.65;;
22812;SDS011;11573;51.334;3.244;2023-03-31T16:07:23;33.03;;;6.15;;
22812;SDS011;11573;51.334;3.244;2023-03-31T16:12:25;39.45;;;7.43;;
22812;SDS011;11573;51.334;3.244;2023-03-31T16:14:54;41.22;;;7.50;;
22812;SDS011;11573;51.334;3.244;2023-03-31T16:17:37;39.83;;;7.40;;
22812;SDS011;11573;51.334;3.244;2023-03-31T16:22:50;40.05;;;7.45;;
22812;SDS011;11573;51.334;3.244;2023-03-31T16:25:21;35.90;;;7.43;;
22812;SDS011;11573;51.334;3.244;2023-03-31T16:27:52;35.33;;;8.38;;
22812;SDS011;11573;51.334;3.244;2023-03-31T16:30:22;41.30;;;8.65;;
22812;SDS011;11573;51.334;3.244;2023-03-31T16:35:36;38.22;;;8.00;;
22812;SDS011;11573;51.334;3.244;2023-03-31T16:38:05;36.40;;;6.97;;
22812;SDS011;11573;51.334;3.244;2023-03-31T16:40:35;45.20;;;7.00;;
22812;SDS011;11573;51.334;3.244;2023-03-31T16:45:36;41.15;;;7.78;;
22812;SDS011;11573;51.334;3.244;2023-03-31T16:48:04;37.67;;;7.63;;
22812;SDS011;11573;51.334;3.244;2023-03-31T16:50:43;43.45;;;7.68;;
22812;SDS011;11573;51.334;3.244;2023-03-31T16:53:17;40.60;;;8.02;;
22812;SDS011;11573;51.334;3.244;2023-03-31T16:55:45;34.88;;;6.97;;
22812;SDS011;11573;51.334;3.244;2023-03-31T16:58:13;36.80;;;7.10;;
22812;SDS011;11573;51.334;3.244;2023-03-31T17:00:41;46.55;;;7.40;;
22812;SDS011;11573;51.334;3.244;2023-03-31T17:03:08;51.95;;;7.45;;
22812;SDS011;11573;51.334;3.244;2023-03-31T17:05:39;43.47;;;8.73;;
22812;SDS011;11573;51.334;3.244;2023-03-31T17:08:09;36.78;;;8.65;;
22812;SDS011;11573;51.334;3.244;2023-03-31T17:10:37;47.95;;;8.65;;
22812;SDS011;11573;51.334;3.244;2023-03-31T17:13:05;43.30;;;9.07;;
22812;SDS011;11573;51.334;3.244;2023-03-31T17:15:32;47.92;;;7.97;;
22812;SDS011;11573;51.334;3.244;2023-03-31T17:18:02;49.22;;;7.82;;
22812;SDS011;11573;51.334;3.244;2023-03-31T17:20:30;40.83;;;7.22;;
22812;SDS011;11573;51.334;3.244;2023-03-31T17:22:57;37.78;;;7.47;;
22812;SDS011;11573;51.334;3.244;2023-03-31T17:25:24;45.03;;;8.25;;
22812;SDS011;11573;51.334;3.244;2023-03-31T17:27:51;44.97;;;8.30;;
22812;SDS011;11573;51.334;3.244;2023-03-31T17:30:18;36.00;;;7.45;;
22812;SDS011;11573;51.334;3.244;2023-03-31T17:32:45;52.60;;;9.07;;
22812;SDS011;11573;51.334;3.244;2023-03-31T17:35:12;48.45;;;8.82;;
22812;SDS011;11573;51.334;3.244;2023-03-31T17:37:47;42.47;;;8.20;;
22812;SDS011;11573;51.334;3.244;2023-03-31T17:40:19;39.70;;;7.32;;
22812;SDS011;11573;51.334;3.244;2023-03-31T17:42:52;39.78;;;8.60;;
22812;SDS011;11573;51.334;3.244;2023-03-31T17:45:19;38.00;;;7.55;;
22812;SDS011;11573;51.334;3.244;2023-03-31T17:47:46;46.33;;;8.50;;
22812;SDS011;11573;51.334;3.244;2023-03-31T17:50:13;57.53;;;8.45;;
22812;SDS011;11573;51.334;3.244;2023-03-31T17:52:41;42.92;;;7.82;;
22812;SDS011;11573;51.334;3.244;2023-03-31T17:55:08;56.42;;;7.43;;
22812;SDS011;11573;51.334;3.244;2023-03-31T17:57:35;46.65;;;8.60;;
22812;SDS011;11573;51.334;3.244;2023-03-31T18:00:04;49.58;;;8.48;;